createdAt,value
2023-02-14T00:01:20.665Z,103.75
2023-02-14T00:03:49.560Z,107.20
2023-02-14T00:06:16.758Z,102.82
2023-02-14T00:08:44.920Z,105.13
2023-02-14T00:11:14.031Z,95.25
2023-02-14T00:14:01.435Z,92.53
2023-02-14T00:16:28.556Z,111.18
2023-02-14T00:19:04.511Z,101.72
2023-02-14T00:21:38.068Z,102.45
2023-02-14T00:24:12.056Z,96.05
2023-02-14T00:26:39.560Z,96.18
2023-02-14T00:29:24.098Z,102.65
2023-02-14T00:31:51.866Z,102.00
2023-02-14T00:34:19.812Z,104.28
2023-02-14T00:36:47.371Z,104.03
2023-02-14T00:39:17.415Z,100.75
2023-02-14T00:41:45.027Z,106.53
2023-02-14T00:44:13.944Z,109.55
2023-02-14T00:46:41.874Z,99.25
2023-02-14T00:49:09.519Z,94.28
2023-02-14T00:51:38.952Z,99.40
2023-02-14T00:54:06.264Z,96.78
2023-02-14T00:56:33.361Z,94.82
2023-02-14T00:59:02.485Z,97.75
2023-02-14T01:01:29.797Z,97.80
2023-02-14T01:03:59.054Z,97.28
2023-02-14T01:06:26.335Z,97.57
2023-02-14T01:08:53.507Z,97.95
2023-02-14T01:11:23.088Z,97.72
2023-02-14T01:13:52.296Z,95.65
2023-02-14T01:16:22.019Z,91.90
2023-02-14T01:18:49.937Z,100.53
2023-02-14T01:21:27.360Z,92.45
2023-02-14T01:24:00.586Z,106.05
2023-02-14T01:26:28.680Z,104.95
2023-02-14T01:28:57.134Z,102.78
2023-02-14T01:31:30.085Z,101.00
2023-02-14T01:33:58.944Z,94.07
2023-02-14T01:36:39.858Z,98.45
2023-02-14T01:39:14.048Z,91.68
2023-02-14T01:44:19.414Z,92.43
2023-02-14T01:46:46.971Z,91.72
2023-02-14T01:49:20.436Z,101.97
2023-02-14T01:52:03.034Z,96.07
2023-02-14T01:54:34.797Z,95.30
2023-02-14T01:57:07.224Z,90.55
2023-02-14T01:59:41.311Z,94.35
2023-02-14T02:02:08.823Z,98.50
2023-02-14T02:04:41.662Z,97.03
2023-02-14T02:07:19.575Z,102.60
2023-02-14T02:09:53.481Z,96.53
2023-02-14T02:12:24.466Z,98.47
2023-02-14T02:14:56.065Z,89.50
2023-02-14T02:17:45.084Z,94.95
2023-02-14T02:20:49.083Z,95.75
2023-02-14T02:23:59.860Z,92.10
2023-02-14T02:26:57.611Z,104.22
2023-02-14T02:29:51.643Z,94.15
2023-02-14T02:32:54.419Z,93.83
2023-02-14T02:35:34.514Z,102.00
2023-02-14T02:38:45.687Z,100.13
2023-02-14T02:41:22.088Z,102.30
2023-02-14T02:44:41.962Z,94.72
2023-02-14T02:47:26.705Z,98.05
2023-02-14T02:50:32.905Z,106.05
2023-02-14T02:53:18.828Z,112.00
2023-02-14T02:56:45.034Z,104.65
2023-02-14T02:59:33.431Z,103.53
2023-02-14T03:02:22.214Z,103.95
2023-02-14T03:05:03.381Z,100.75
2023-02-14T03:07:37.254Z,101.78
2023-02-14T03:10:08.396Z,115.07
2023-02-14T03:12:35.407Z,115.07
2023-02-14T03:15:34.976Z,130.35
2023-02-14T03:18:59.759Z,133.38
2023-02-14T03:21:45.337Z,136.75
2023-02-14T03:24:47.561Z,140.88
2023-02-14T03:27:39.388Z,140.05
2023-02-14T03:30:25.107Z,139.45
2023-02-14T03:33:08.010Z,146.93
2023-02-14T03:36:06.138Z,142.63
2023-02-14T03:39:03.046Z,142.00
2023-02-14T03:41:37.798Z,140.85
2023-02-14T03:44:11.378Z,136.57
2023-02-14T03:46:50.426Z,142.20
2023-02-14T03:49:23.905Z,141.00
2023-02-14T03:51:55.066Z,132.00
2023-02-14T03:54:26.114Z,133.93
2023-02-14T03:57:05.369Z,133.52
2023-02-14T03:59:32.342Z,141.95
2023-02-14T04:02:36.038Z,142.00
2023-02-14T04:05:12.559Z,144.25
2023-02-14T04:08:05.623Z,139.48
2023-02-14T04:10:32.860Z,140.52
2023-02-14T04:12:59.956Z,138.77
2023-02-14T04:15:27.067Z,130.25
2023-02-14T04:18:12.754Z,138.73
2023-02-14T04:20:39.827Z,133.18
2023-02-14T04:23:07.051Z,132.70
2023-02-14T04:25:34.042Z,132.45
2023-02-14T04:28:01.091Z,136.73
2023-02-14T04:30:28.203Z,136.43
2023-02-14T04:32:55.276Z,138.38
2023-02-14T04:35:22.262Z,139.82
2023-02-14T04:37:52.111Z,156.98
2023-02-14T04:40:19.424Z,134.63
2023-02-14T04:42:46.995Z,136.68
2023-02-14T04:45:15.445Z,139.68
2023-02-14T04:47:42.732Z,135.93
2023-02-14T04:50:10.735Z,135.38
2023-02-14T04:52:38.269Z,134.85
2023-02-14T04:55:06.272Z,131.95
2023-02-14T04:57:33.561Z,132.52
2023-02-14T05:00:01.863Z,127.78
2023-02-14T05:02:29.025Z,127.85
2023-02-14T05:04:56.096Z,135.43
2023-02-14T05:07:23.055Z,125.40
2023-02-14T05:09:50.124Z,126.15
2023-02-14T05:12:17.245Z,124.28
2023-02-14T05:14:44.293Z,124.97
2023-02-14T05:17:11.651Z,131.13
2023-02-14T05:19:38.638Z,127.30
2023-02-14T05:22:05.672Z,126.25
2023-02-14T05:24:32.697Z,132.73
2023-02-14T05:26:59.867Z,137.73
2023-02-14T05:29:27.026Z,136.30
2023-02-14T05:31:54.717Z,130.60
2023-02-14T05:34:22.191Z,129.98
2023-02-14T05:36:49.209Z,133.30
2023-02-14T05:39:16.203Z,128.93
2023-02-14T05:41:43.264Z,129.77
2023-02-14T05:44:10.337Z,126.75
2023-02-14T05:46:37.863Z,130.90
2023-02-14T05:49:05.085Z,132.93
2023-02-14T05:51:32.344Z,141.40
2023-02-14T05:54:01.215Z,132.55
2023-02-14T05:56:28.538Z,148.82
2023-02-14T05:58:56.007Z,140.77
2023-02-14T06:01:23.447Z,143.02
2023-02-14T06:03:53.562Z,137.35
2023-02-14T06:06:20.834Z,136.98
2023-02-14T06:08:49.285Z,130.10
2023-02-14T06:11:16.337Z,133.75
2023-02-14T06:13:43.708Z,134.75
2023-02-14T06:16:11.535Z,131.25
2023-02-14T06:18:39.215Z,130.70
2023-02-14T06:21:07.554Z,120.68
2023-02-14T06:23:34.738Z,127.88
2023-02-14T06:26:01.982Z,127.53
2023-02-14T06:28:29.106Z,124.53
2023-02-14T06:30:56.539Z,135.30
2023-02-14T06:33:23.972Z,145.80
2023-02-14T06:35:54.551Z,138.13
2023-02-14T06:38:21.921Z,131.80
2023-02-14T06:40:49.026Z,131.25
2023-02-14T06:43:16.220Z,125.88
2023-02-14T06:45:43.911Z,130.18
2023-02-14T06:48:11.250Z,124.43
2023-02-14T06:50:38.594Z,127.47
2023-02-14T06:53:06.299Z,127.03
2023-02-14T06:55:33.418Z,126.60
2023-02-14T06:58:00.899Z,136.00
2023-02-14T07:00:28.343Z,123.40
2023-02-14T07:02:58.627Z,128.98
2023-02-14T07:05:25.826Z,122.55
2023-02-14T07:07:53.078Z,127.18
2023-02-14T07:10:20.511Z,121.10
2023-02-14T07:12:47.772Z,125.03
2023-02-14T07:15:15.158Z,130.02
2023-02-14T07:17:42.855Z,124.05
2023-02-14T07:20:14.269Z,134.60
2023-02-14T07:22:41.354Z,134.05
2023-02-14T07:25:08.851Z,137.27
2023-02-14T07:27:36.186Z,132.55
2023-02-14T07:30:05.812Z,129.30
2023-02-14T07:32:33.028Z,133.95
2023-02-14T07:35:00.414Z,124.50
2023-02-14T07:37:28.071Z,119.25
2023-02-14T07:39:55.533Z,114.25
2023-02-14T07:42:22.906Z,117.35
2023-02-14T07:44:49.964Z,117.80
2023-02-14T07:47:18.699Z,115.47
2023-02-14T07:49:45.883Z,130.35
2023-02-14T07:52:12.982Z,129.27
2023-02-14T07:54:42.133Z,127.97
2023-02-14T07:57:09.308Z,117.85
2023-02-14T07:59:36.582Z,120.32
2023-02-14T08:02:04.008Z,114.60
2023-02-14T08:04:33.747Z,114.72
2023-02-14T08:07:01.156Z,124.00
2023-02-14T08:09:28.183Z,108.93
2023-02-14T08:12:16.600Z,109.60
2023-02-14T08:14:44.929Z,109.40
2023-02-14T08:17:13.485Z,107.85
2023-02-14T08:19:41.421Z,104.82
2023-02-14T08:22:08.837Z,97.35
2023-02-14T08:24:35.998Z,101.40
2023-02-14T08:27:03.385Z,98.78
2023-02-14T08:29:30.746Z,104.32
2023-02-14T08:32:00.473Z,93.65
2023-02-14T08:34:27.666Z,95.00
2023-02-14T08:36:55.163Z,104.93
2023-02-14T08:39:22.488Z,95.10
2023-02-14T08:41:49.588Z,94.35
2023-02-14T08:44:16.692Z,92.55
2023-02-14T08:46:44.070Z,89.35
2023-02-14T08:49:13.023Z,89.00
2023-02-14T08:51:40.464Z,89.38
2023-02-14T08:54:07.931Z,86.32
2023-02-14T08:56:35.400Z,84.25
2023-02-14T08:59:02.842Z,82.53
2023-02-14T09:01:30.629Z,79.88
2023-02-14T09:03:58.489Z,87.95
2023-02-14T09:06:26.298Z,85.32
2023-02-14T09:08:57.534Z,85.68
2023-02-14T09:11:26.771Z,81.22
2023-02-14T09:13:55.012Z,83.50
2023-02-14T09:16:24.117Z,85.55
2023-02-14T09:18:53.309Z,84.43
2023-02-14T09:21:26.560Z,87.93
2023-02-14T09:23:54.818Z,86.70
2023-02-14T09:26:21.992Z,85.45
2023-02-14T09:28:49.011Z,85.18
2023-02-14T09:31:20.040Z,90.10
2023-02-14T09:34:08.024Z,86.88
2023-02-14T09:36:35.077Z,88.28
2023-02-14T09:39:02.417Z,83.53
2023-02-14T09:41:29.752Z,89.18
2023-02-14T09:44:17.382Z,87.32
2023-02-14T09:46:52.606Z,91.07
2023-02-14T09:49:34.739Z,88.43
2023-02-14T09:52:04.964Z,83.80
2023-02-14T09:54:35.323Z,93.50
2023-02-14T09:57:28.951Z,86.22
2023-02-14T10:00:25.309Z,89.72
2023-02-14T10:03:08.332Z,88.70
2023-02-14T10:05:57.425Z,82.88
2023-02-14T10:09:17.613Z,96.57
2023-02-14T10:11:46.939Z,86.82
2023-02-14T10:14:26.345Z,90.15
2023-02-14T10:17:22.654Z,93.10
2023-02-14T10:20:00.030Z,88.03
2023-02-14T10:23:02.330Z,82.07
2023-02-14T10:25:42.162Z,83.72
2023-02-14T10:28:16.787Z,83.40
2023-02-14T10:31:02.357Z,81.75
2023-02-14T10:33:33.887Z,81.82
2023-02-14T10:36:10.249Z,80.35
2023-02-14T10:39:04.051Z,77.97
2023-02-14T10:42:17.682Z,74.60
2023-02-14T10:45:00.260Z,76.43
2023-02-14T10:47:45.169Z,84.20
2023-02-14T10:50:38.895Z,80.68
2023-02-14T10:53:29.639Z,84.63
2023-02-14T11:01:55.985Z,76.40
2023-02-14T11:04:25.403Z,77.07
2023-02-14T11:06:53.045Z,82.13
2023-02-14T11:09:21.004Z,74.88
2023-02-14T11:11:54.003Z,73.75
2023-02-14T11:14:32.763Z,85.45
2023-02-14T11:17:27.789Z,82.97
2023-02-14T11:20:27.923Z,89.40
2023-02-14T11:22:55.174Z,84.95
2023-02-14T11:25:29.174Z,83.63
2023-02-14T11:28:06.231Z,87.93
2023-02-14T11:30:45.673Z,78.78
2023-02-14T11:33:30.521Z,81.47
2023-02-14T11:35:58.336Z,74.65
2023-02-14T11:38:38.394Z,75.88
2023-02-14T11:41:10.751Z,78.40
2023-02-14T11:43:49.269Z,78.82
2023-02-14T11:46:28.253Z,76.47
2023-02-14T11:49:09.908Z,77.95
2023-02-14T11:51:43.490Z,79.65
2023-02-14T11:54:30.959Z,80.50
2023-02-14T11:57:12.154Z,76.05
2023-02-14T11:59:48.255Z,71.70
2023-02-14T12:02:39.744Z,71.35
2023-02-14T12:05:45.344Z,83.07
2023-02-14T12:10:43.790Z,69.20
2023-02-14T12:13:10.780Z,61.80
2023-02-14T12:15:43.578Z,68.75
2023-02-14T12:18:35.059Z,70.07
2023-02-14T12:21:54.289Z,62.83
2023-02-14T12:24:36.768Z,64.45
2023-02-14T12:27:20.149Z,67.38
2023-02-14T12:30:18.369Z,67.43
2023-02-14T12:32:53.957Z,63.90
2023-02-14T12:36:02.899Z,67.65
2023-02-14T12:38:48.809Z,73.32
2023-02-14T12:41:40.624Z,66.28
2023-02-14T12:45:00.857Z,68.25
2023-02-14T12:47:55.495Z,63.03
2023-02-14T12:50:55.499Z,68.38
2023-02-14T12:53:42.514Z,62.05
2023-02-14T12:56:18.728Z,63.22
2023-02-14T12:59:12.858Z,62.58
2023-02-14T13:01:43.170Z,65.13
2023-02-14T13:04:53.271Z,68.38
2023-02-14T13:07:55.800Z,63.95
2023-02-14T13:11:04.787Z,61.25
2023-02-14T13:13:43.987Z,65.57
2023-02-14T13:16:48.329Z,65.78
2023-02-14T13:19:47.371Z,70.00
2023-02-14T13:22:20.383Z,72.43
2023-02-14T13:24:57.847Z,76.22
2023-02-14T13:27:30.214Z,71.25
2023-02-14T13:30:27.828Z,68.47
2023-02-14T13:33:01.271Z,68.60
2023-02-14T13:35:30.253Z,71.43
2023-02-14T13:38:13.225Z,66.22
2023-02-14T13:40:41.559Z,71.32
2023-02-14T13:43:08.867Z,69.00
2023-02-14T13:45:37.522Z,72.10
2023-02-14T13:48:18.618Z,69.93
2023-02-14T13:51:10.351Z,71.97
2023-02-14T13:53:51.506Z,69.35
2023-02-14T13:56:18.422Z,70.95
2023-02-14T13:58:52.365Z,68.28
2023-02-14T14:01:50.288Z,70.78
2023-02-14T14:04:26.816Z,72.07
2023-02-14T14:07:00.781Z,68.32
2023-02-14T14:09:43.766Z,73.70
2023-02-14T14:12:29.264Z,80.15
2023-02-14T14:15:08.288Z,72.15
2023-02-14T14:17:46.072Z,68.30
2023-02-14T14:20:16.268Z,69.97
2023-02-14T14:22:49.849Z,66.25
2023-02-14T14:25:39.140Z,69.18
2023-02-14T14:28:20.411Z,71.00
2023-02-14T14:30:48.207Z,68.57
2023-02-14T14:33:34.293Z,69.25
2023-02-14T14:36:07.945Z,71.50
2023-02-14T14:38:49.344Z,70.72
2023-02-14T14:41:17.406Z,68.07
2023-02-14T14:43:44.821Z,67.38
2023-02-14T14:46:14.629Z,68.82
2023-02-14T14:48:51.819Z,72.30
2023-02-14T14:51:36.041Z,71.18
2023-02-14T14:54:15.031Z,73.93
2023-02-14T14:56:56.805Z,71.80
2023-02-14T14:59:35.139Z,68.63
2023-02-14T15:02:04.344Z,70.93
2023-02-14T15:04:35.336Z,78.32
2023-02-14T15:07:33.250Z,72.95
2023-02-14T15:10:01.448Z,70.40
2023-02-14T15:13:02.415Z,78.13
2023-02-14T15:15:30.718Z,76.88
2023-02-14T15:17:58.017Z,79.93
2023-02-14T15:20:25.730Z,76.07
2023-02-14T15:22:53.979Z,75.93
2023-02-14T15:25:24.995Z,76.90
2023-02-14T15:27:52.590Z,73.05
2023-02-14T15:30:19.632Z,77.55
2023-02-14T15:32:49.516Z,73.25
2023-02-14T15:35:23.336Z,75.03
2023-02-14T15:37:51.001Z,71.55
2023-02-14T15:40:28.968Z,73.90
2023-02-14T15:42:57.521Z,77.20
2023-02-14T15:45:28.070Z,69.47
2023-02-14T15:48:03.668Z,77.75
2023-02-14T15:50:55.242Z,72.22
2023-02-14T15:53:34.719Z,72.85
2023-02-14T15:56:09.714Z,80.25
2023-02-14T15:58:38.986Z,71.68
2023-02-14T16:01:07.786Z,75.90
2023-02-14T16:03:40.504Z,76.18
2023-02-14T16:06:29.490Z,76.03
2023-02-14T16:08:59.389Z,77.90
2023-02-14T16:11:37.151Z,81.07
2023-02-14T16:14:32.363Z,74.15
2023-02-14T16:17:12.718Z,74.00
2023-02-14T16:19:45.858Z,75.82
2023-02-14T16:22:31.955Z,73.97
2023-02-14T16:24:59.899Z,67.57
2023-02-14T16:27:27.560Z,73.15
2023-02-14T16:29:54.839Z,71.00
2023-02-14T16:32:24.503Z,77.68
2023-02-14T16:34:51.926Z,69.15
2023-02-14T16:37:33.621Z,71.20
2023-02-14T16:40:02.402Z,70.10
2023-02-14T16:42:30.134Z,66.25
2023-02-14T16:44:58.338Z,70.65
2023-02-14T16:47:27.886Z,65.65
2023-02-14T16:49:55.289Z,70.63
2023-02-14T16:52:26.778Z,72.65
2023-02-14T16:54:54.055Z,70.60
2023-02-14T16:57:28.213Z,84.72
2023-02-14T17:02:28.258Z,81.18
2023-02-14T17:04:56.032Z,69.10
2023-02-14T17:07:23.572Z,70.78
2023-02-14T17:09:57.116Z,75.45
2023-02-14T17:12:30.913Z,67.60
2023-02-14T17:15:06.050Z,70.40
2023-02-14T17:17:35.877Z,76.65
2023-02-14T17:20:06.301Z,70.85
2023-02-14T17:22:34.517Z,79.18
2023-02-14T17:25:01.521Z,75.63
2023-02-14T17:27:28.665Z,77.50
2023-02-14T17:29:55.694Z,75.03
2023-02-14T17:32:22.853Z,74.25
2023-02-14T17:34:49.872Z,76.55
2023-02-14T17:37:19.042Z,76.88
2023-02-14T17:39:46.187Z,76.68
2023-02-14T17:42:13.267Z,83.22
2023-02-14T17:44:40.441Z,84.38
2023-02-14T17:47:07.790Z,73.47
2023-02-14T17:49:35.027Z,72.68
2023-02-14T17:52:02.088Z,72.75
2023-02-14T17:54:29.102Z,78.85
2023-02-14T17:56:56.066Z,88.07
2023-02-14T17:59:24.352Z,82.72
2023-02-14T18:01:51.501Z,74.38
2023-02-14T18:04:19.072Z,81.30
2023-02-14T18:06:46.106Z,85.88
2023-02-14T18:09:14.206Z,87.93
2023-02-14T18:11:42.334Z,81.03
2023-02-14T18:14:09.728Z,78.80
2023-02-14T18:16:39.118Z,81.75
2023-02-14T18:19:08.614Z,81.20
2023-02-14T18:21:40.033Z,96.55
2023-02-14T18:24:08.430Z,92.00
2023-02-14T18:26:41.051Z,89.05
2023-02-14T18:29:08.916Z,85.82
2023-02-14T18:31:38.730Z,84.82
2023-02-14T18:34:06.219Z,85.88
2023-02-14T18:36:36.695Z,84.22
2023-02-14T18:39:06.093Z,86.30
2023-02-14T18:41:33.281Z,89.55
2023-02-14T18:44:04.209Z,90.70
2023-02-14T18:46:35.269Z,95.55
2023-02-14T18:49:06.066Z,88.60
2023-02-14T18:51:37.504Z,86.22
2023-02-14T18:54:05.277Z,87.22
2023-02-14T18:56:35.993Z,91.25
2023-02-14T18:59:07.651Z,81.88
2023-02-14T19:01:39.604Z,88.32
2023-02-14T19:04:12.100Z,81.70
2023-02-14T19:06:41.740Z,88.93
2023-02-14T19:09:16.226Z,103.07
2023-02-14T19:11:43.999Z,91.85
2023-02-14T19:14:12.957Z,88.97
2023-02-14T19:16:51.256Z,80.10
2023-02-14T19:19:18.593Z,93.43
2023-02-14T19:21:48.607Z,101.97
2023-02-14T19:24:17.408Z,91.85
2023-02-14T19:26:44.764Z,96.95
2023-02-14T19:29:17.937Z,89.57
2023-02-14T19:31:48.644Z,95.35
2023-02-14T19:34:17.215Z,92.07
2023-02-14T19:36:44.512Z,99.32
2023-02-14T19:39:12.674Z,83.65
2023-02-14T19:41:40.268Z,98.53
2023-02-14T19:44:10.059Z,85.15
2023-02-14T19:46:38.347Z,87.82
2023-02-14T19:49:05.854Z,88.00
2023-02-14T19:51:36.467Z,82.75
2023-02-14T19:54:07.183Z,83.55
2023-02-14T19:56:38.882Z,78.20
2023-02-14T19:59:10.034Z,82.45
2023-02-14T20:01:46.156Z,82.60
2023-02-14T20:04:18.218Z,76.70
2023-02-14T20:06:45.997Z,79.85
2023-02-14T20:09:14.172Z,90.20
2023-02-14T20:11:50.972Z,93.60
2023-02-14T20:14:26.500Z,94.25
2023-02-14T20:16:56.402Z,86.15
2023-02-14T20:19:27.901Z,101.15
2023-02-14T20:21:55.477Z,96.90
2023-02-14T20:24:27.400Z,94.82
2023-02-14T20:26:55.753Z,92.30
2023-02-14T20:29:24.773Z,102.30
2023-02-14T20:31:58.150Z,105.60
2023-02-14T20:34:26.658Z,97.78
2023-02-14T20:36:55.317Z,100.63
2023-02-14T20:39:28.538Z,91.05
2023-02-14T20:41:55.646Z,86.87
2023-02-14T20:44:22.970Z,94.45
2023-02-14T20:46:53.167Z,96.25
2023-02-14T20:49:22.166Z,94.07
2023-02-14T20:51:50.934Z,94.13
2023-02-14T20:54:24.026Z,94.32
2023-02-14T20:56:52.190Z,93.22
2023-02-14T20:59:26.933Z,87.50
2023-02-14T21:01:58.824Z,81.95
2023-02-14T21:04:26.897Z,88.82
2023-02-14T21:06:54.601Z,102.28
2023-02-14T21:09:21.708Z,91.88
2023-02-14T21:11:52.217Z,84.88
2023-02-14T21:14:20.883Z,92.85
2023-02-14T21:16:48.202Z,87.28
2023-02-14T21:19:15.401Z,93.13
2023-02-14T21:21:43.180Z,89.72
2023-02-14T21:24:16.840Z,87.50
2023-02-14T21:26:44.876Z,87.25
2023-02-14T21:29:12.101Z,89.40
2023-02-14T21:31:39.642Z,84.25
2023-02-14T21:34:06.826Z,78.65
2023-02-14T21:36:37.577Z,91.60
2023-02-14T21:39:06.632Z,83.93
2023-02-14T21:41:37.679Z,86.05
2023-02-14T21:44:06.829Z,84.45
2023-02-14T21:46:39.494Z,84.43
2023-02-14T21:49:25.767Z,86.88
2023-02-14T21:51:53.020Z,88.15
2023-02-14T21:54:27.072Z,87.22
2023-02-14T21:56:54.737Z,89.68
2023-02-14T21:59:22.109Z,87.22
2023-02-14T22:01:49.093Z,91.25
2023-02-14T22:04:16.298Z,90.70
2023-02-14T22:06:43.640Z,93.55
2023-02-14T22:09:13.887Z,94.80
2023-02-14T22:11:41.192Z,89.38
2023-02-14T22:14:08.529Z,92.40
2023-02-14T22:16:36.933Z,88.05
2023-02-14T22:19:05.714Z,87.55
2023-02-14T22:21:33.593Z,85.07
2023-02-14T22:24:01.341Z,94.47
2023-02-14T22:26:39.534Z,88.57
2023-02-14T22:29:09.964Z,89.95
2023-02-14T22:31:43.243Z,96.07
2023-02-14T22:34:14.087Z,100.73
2023-02-14T22:36:41.447Z,90.40
2023-02-14T22:39:09.513Z,97.80
2023-02-14T22:41:37.997Z,92.68
2023-02-14T22:44:06.187Z,100.85
2023-02-14T22:46:36.806Z,98.43
2023-02-14T22:49:05.502Z,92.97
2023-02-14T22:51:40.321Z,89.57
2023-02-14T22:54:15.005Z,90.80
2023-02-14T22:56:45.314Z,87.65
2023-02-14T22:59:28.332Z,94.68
2023-02-14T23:01:55.435Z,89.40
2023-02-14T23:04:24.992Z,93.07
2023-02-14T23:06:53.567Z,88.28
2023-02-14T23:09:20.694Z,92.90
2023-02-14T23:11:48.411Z,95.22
2023-02-14T23:14:35.703Z,96.00
2023-02-14T23:17:16.281Z,90.43
2023-02-14T23:20:03.536Z,101.45
2023-02-14T23:22:38.665Z,90.05
2023-02-14T23:25:10.698Z,93.07
2023-02-14T23:27:41.662Z,87.45
2023-02-14T23:30:15.335Z,91.43
2023-02-14T23:32:42.835Z,87.10
2023-02-14T23:35:10.390Z,99.40
2023-02-14T23:37:38.447Z,94.10
2023-02-14T23:40:07.013Z,92.97
2023-02-14T23:42:34.042Z,98.30
2023-02-14T23:45:21.208Z,102.07
2023-02-14T23:47:49.349Z,91.78
2023-02-14T23:50:16.889Z,98.30
2023-02-14T23:52:44.708Z,100.72
2023-02-14T23:55:12.902Z,92.53
2023-02-14T23:57:40.089Z,92.07
